Time;durP1;ratioP1;P1;durP2;ratioP2;P2;SDS_P1;SDS_P2;PMS_P1;PMS_P2;Temp;Humidity;BMP_temperature;BMP_pressure;BME280_temperature;BME280_humidity;BME280_pressure;Samples;Min_cycle;Max_cycle;Signal;HPM_P1;HPM_P2
2023/03/26 00:01:45;;;;;;;49.25;20.77;;;;;;;3.53;72.71;100999.06;4944868;27;20051;-65
2023/03/26 00:04:18;;;;;;;46.90;20.38;;;;;;;3.62;73.83;100999.25;4935018;28;20516;-64
2023/03/26 00:06:52;;;;;;;52.55;18.98;;;;;;;3.34;73.51;100921.09;4945806;27;20654;-64
2023/03/26 00:09:23;;;;;;;43.55;18.77;;;;;;;3.85;72.02;101008.44;4941016;27;20037;-63
2023/03/26 00:11:55;;;;;;;47.20;20.13;;;;;;;3.71;72.29;101007.22;4948636;27;20056;-62
2023/03/26 00:14:25;;;;;;;42.75;16.33;;;;;;;3.73;71.36;101002.97;4946357;27;20058;-60
2023/03/26 00:16:56;;;;;;;58.92;21.70;;;;;;;3.95;73.96;100988.81;4945863;27;20050;-64
2023/03/26 00:19:29;;;;;;;43.67;15.57;;;;;;;4.24;72.62;100992.06;4944155;27;20061;-64
2023/03/26 00:21:59;;;;;;;47.67;17.33;;;;;;;4.19;71.50;100993.63;4945411;27;20055;-62
2023/03/26 00:24:30;;;;;;;45.60;17.27;;;;;;;4.21;71.17;100986.78;4938951;27;20040;-64
2023/03/26 00:27:07;;;;;;;45.90;16.38;;;;;;;4.11;71.27;100990.88;4944904;27;20051;-60
2023/03/26 00:29:38;;;;;;;53.55;20.15;;;;;;;4.16;71.02;100993.56;4934944;27;20056;-62
2023/03/26 00:32:09;;;;;;;56.55;21.90;;;;;;;4.54;72.20;100985.72;4945052;27;20051;-65
2023/03/26 00:34:40;;;;;;;49.22;20.00;;;;;;;4.53;71.36;100996.94;4945359;27;20364;-61
2023/03/26 00:37:11;;;;;;;49.47;19.30;;;;;;;4.75;72.35;100975.81;4946319;28;20374;-64
2023/03/26 00:39:43;;;;;;;52.65;18.90;;;;;;;4.89;71.79;100972.56;4941774;28;20065;-61
2023/03/26 00:42:15;;;;;;;47.90;16.13;;;;;;;4.93;70.21;100953.69;4936530;28;20201;-62
2023/03/26 00:44:46;;;;;;;38.67;17.48;;;;;;;4.97;70.42;100978.78;4946125;28;20460;-63
2023/03/26 00:47:16;;;;;;;47.55;16.48;;;;;;;5.05;70.50;100973.75;4945453;28;20476;-62
2023/03/26 00:49:47;;;;;;;38.63;14.82;;;;;;;5.12;70.74;100971.28;4944093;27;20106;-63
2023/03/26 00:52:19;;;;;;;27.48;12.63;;;;;;;5.05;69.48;100947.84;4944840;28;20043;-64
2023/03/26 00:54:52;;;;;;;34.42;11.70;;;;;;;5.02;69.18;100959.03;4945494;28;20536;-64
2023/03/26 00:57:29;;;;;;;25.30;11.30;;;;;;;5.08;69.08;100959.13;4939508;28;20511;-64
2023/03/26 01:00:15;;;;;;;29.63;10.60;;;;;;;4.99;68.11;100956.34;4934505;28;20047;-63
2023/03/26 01:02:46;;;;;;;31.90;10.85;;;;;;;5.07;67.96;100952.19;4943848;28;20112;-63
2023/03/26 01:05:47;;;;;;;30.10;11.00;;;;;;;5.05;67.16;100953.88;4945825;28;20055;-63
2023/03/26 01:08:26;;;;;;;25.10;9.75;;;;;;;5.08;67.66;100961.72;4933530;28;20066;-65
2023/03/26 01:11:05;;;;;;;27.92;9.32;;;;;;;5.06;66.40;100939.22;4933735;28;20058;-64
2023/03/26 01:13:39;;;;;;;34.85;8.80;;;;;;;5.07;65.78;100956.53;4936268;28;20107;-64
2023/03/26 01:16:21;;;;;;;35.42;7.40;;;;;;;5.13;65.39;100952.28;4925996;28;20108;-63
2023/03/26 01:18:52;;;;;;;26.30;8.13;;;;;;;4.97;64.66;100929.59;4933817;28;20047;-63
2023/03/26 01:21:28;;;;;;;20.20;6.75;;;;;;;4.98;65.20;100926.13;4941906;28;20508;-63
2023/03/26 01:24:04;;;;;;;27.85;6.18;;;;;;;4.81;64.76;100873.19;4945273;28;20046;-65
2023/03/26 01:27:06;;;;;;;19.63;5.60;;;;;;;5.07;63.37;100947.03;4934845;28;20063;-64
2023/03/26 01:29:45;;;;;;;18.00;5.57;;;;;;;5.08;63.55;100943.56;4933711;28;20034;-64
2023/03/26 01:32:36;;;;;;;29.35;5.22;;;;;;;5.11;63.10;100943.63;4936834;27;20052;-65
2023/03/26 01:35:19;;;;;;;24.67;6.50;;;;;;;5.10;62.62;100935.84;4938523;27;20686;-64
2023/03/26 01:37:58;;;;;;;18.73;5.25;;;;;;;4.90;62.56;100944.13;4936966;27;20132;-64
2023/03/26 01:40:37;;;;;;;20.35;6.00;;;;;;;4.86;63.00;100931.09;4937566;27;20058;-65
2023/03/26 01:43:13;;;;;;;26.58;6.68;;;;;;;4.89;62.67;100920.78;4937622;27;20059;-67
2023/03/26 01:45:47;;;;;;;21.50;4.85;;;;;;;4.84;62.53;100927.59;4939206;27;21287;-65
2023/03/26 01:48:18;;;;;;;22.40;5.40;;;;;;;4.92;63.35;100926.03;4946795;27;20154;-64
2023/03/26 01:50:52;;;;;;;28.17;6.75;;;;;;;5.12;63.52;100918.59;4920134;28;20052;-64
2023/03/26 01:53:22;;;;;;;29.20;5.55;;;;;;;5.35;61.94;100921.56;4916760;28;20057;-62
2023/03/26 01:56:05;;;;;;;20.98;5.15;;;;;;;5.38;61.41;100906.91;4924443;28;21853;-64
2023/03/26 01:58:43;;;;;;;23.13;5.00;;;;;;;5.40;61.51;100910.41;4909061;28;20105;-62
2023/03/26 02:01:26;;;;;;;29.42;5.60;;;;;;;5.41;61.08;100901.78;4911378;28;20061;-66
2023/03/26 02:04:03;;;;;;;25.40;4.63;;;;;;;5.55;61.12;100894.22;4904280;28;20067;-66
2023/03/26 02:06:39;;;;;;;34.00;5.82;;;;;;;5.69;59.30;100890.94;4910343;28;20099;-64
2023/03/26 02:09:15;;;;;;;23.63;5.60;;;;;;;5.65;59.45;100883.97;4924011;28;20366;-67
2023/03/26 02:11:49;;;;;;;21.38;4.63;;;;;;;5.52;58.48;100889.00;4909992;28;20262;-67
2023/03/26 02:14:19;;;;;;;18.67;4.93;;;;;;;5.60;59.31;100884.78;4922815;28;20092;-64
2023/03/26 02:16:50;;;;;;;24.00;4.85;;;;;;;5.72;58.32;100871.09;4927732;28;20043;-65
2023/03/26 02:19:23;;;;;;;28.02;4.82;;;;;;;5.70;57.90;100871.94;4925038;28;20205;-65
2023/03/26 02:21:58;;;;;;;18.83;4.03;;;;;;;5.78;58.17;100871.19;4918095;28;20058;-66
2023/03/26 02:24:29;;;;;;;28.50;5.45;;;;;;;5.93;57.75;100880.00;4914692;28;20459;-66
2023/03/26 02:27:01;;;;;;;18.83;3.88;;;;;;;6.02;56.68;100870.66;4914765;28;20044;-66
2023/03/26 02:29:36;;;;;;;28.75;5.45;;;;;;;5.99;58.00;100865.44;4916280;28;20055;-66
2023/03/26 02:32:07;;;;;;;25.15;5.95;;;;;;;5.72;56.83;100797.66;4908755;28;20098;-66
2023/03/26 02:34:39;;;;;;;17.48;4.78;;;;;;;5.91;55.43;100856.63;4919373;28;20379;-66
2023/03/26 02:37:10;;;;;;;16.45;4.10;;;;;;;5.65;56.23;100847.69;4919705;28;20254;-66
2023/03/26 02:39:41;;;;;;;25.77;4.13;;;;;;;5.84;56.84;100847.03;4919034;28;20036;-66
2023/03/26 02:42:14;;;;;;;21.95;4.72;;;;;;;5.89;56.97;100857.47;4917486;28;20376;-65
2023/03/26 02:44:45;;;;;;;27.27;6.03;;;;;;;5.72;56.52;100779.50;4908238;28;20064;-66
2023/03/26 02:47:16;;;;;;;22.23;4.30;;;;;;;6.06;56.28;100840.41;4919585;28;20335;-66
2023/03/26 02:49:46;;;;;;;21.33;4.72;;;;;;;5.92;55.29;100806.53;4936954;27;20099;-66
2023/03/26 02:52:17;;;;;;;21.83;4.15;;;;;;;6.19;54.61;100831.03;4947937;27;20048;-65
2023/03/26 02:54:47;;;;;;;24.00;4.15;;;;;;;6.06;56.33;100830.03;4946644;27;20071;-65
2023/03/26 02:57:20;;;;;;;18.88;4.90;;;;;;;6.20;55.81;100817.22;4946044;27;20538;-65
2023/03/26 02:59:51;;;;;;;21.52;4.70;;;;;;;6.37;56.59;100823.47;4946203;27;20060;-65
2023/03/26 03:02:23;;;;;;;23.42;4.72;;;;;;;6.56;55.75;100816.69;4947226;27;20043;-66
2023/03/26 03:05:01;;;;;;;14.10;4.20;;;;;;;6.67;55.76;100825.47;4940669;27;20212;-65
2023/03/26 03:07:31;;;;;;;28.77;4.57;;;;;;;6.60;55.26;100820.19;4946819;27;20043;-65
2023/03/26 03:10:02;;;;;;;27.00;5.45;;;;;;;6.64;55.14;100815.06;4946531;27;20715;-64
2023/03/26 03:12:34;;;;;;;21.75;4.95;;;;;;;6.66;55.27;100813.34;4945903;27;20052;-65
2023/03/26 03:15:05;;;;;;;19.63;4.53;;;;;;;6.64;55.68;100819.34;4945581;27;20054;-65
2023/03/26 03:17:35;;;;;;;26.42;5.05;;;;;;;6.71;55.39;100815.94;4946652;27;20969;-65
2023/03/26 03:20:08;;;;;;;26.65;5.40;;;;;;;6.87;55.09;100812.63;4946450;27;20142;-63
2023/03/26 03:22:39;;;;;;;21.20;5.25;;;;;;;6.95;54.36;100793.63;4946254;27;20138;-64
2023/03/26 03:25:13;;;;;;;18.52;4.55;;;;;;;6.38;55.36;100682.41;4946964;27;20062;-64
2023/03/26 03:27:45;;;;;;;16.55;4.32;;;;;;;6.99;53.29;100805.78;4940868;27;20922;-66
2023/03/26 03:30:16;;;;;;;22.75;5.13;;;;;;;6.67;54.62;100798.63;4946073;27;20406;-66
2023/03/26 03:32:46;;;;;;;19.50;4.32;;;;;;;6.48;54.99;100788.06;4946289;27;20100;-65
2023/03/26 03:35:17;;;;;;;20.17;4.93;;;;;;;6.30;55.66;100790.50;4941610;28;20031;-66
2023/03/26 03:37:47;;;;;;;24.23;4.10;;;;;;;5.92;56.43;100785.78;4945595;27;20134;-66
2023/03/26 03:40:18;;;;;;;25.52;5.25;;;;;;;5.51;57.68;100690.22;4946062;27;20474;-65
2023/03/26 03:42:51;;;;;;;24.48;5.50;;;;;;;5.99;57.66;100790.22;4945188;27;20043;-66
2023/03/26 03:45:21;;;;;;;22.98;5.95;;;;;;;6.01;58.20;100791.06;4944140;27;20472;-64
2023/03/26 03:47:52;;;;;;;28.45;5.38;;;;;;;6.17;58.25;100775.69;4945572;27;20047;-63
2023/03/26 03:50:22;;;;;;;26.45;5.47;;;;;;;6.26;56.98;100786.13;4941753;27;20431;-65
2023/03/26 03:52:54;;;;;;;22.48;4.88;;;;;;;6.08;56.76;100775.59;4952070;27;20056;-64
2023/03/26 03:55:28;;;;;;;26.55;4.82;;;;;;;5.89;58.04;100780.56;4947070;27;20124;-64
2023/03/26 03:58:01;;;;;;;23.02;4.35;;;;;;;5.79;58.13;100701.78;4954668;28;20039;-64
2023/03/26 04:00:31;;;;;;;29.02;5.75;;;;;;;6.14;57.38;100754.88;4951926;27;20070;-65
2023/03/26 04:03:04;;;;;;;15.50;5.85;;;;;;;6.10;57.87;100758.31;4953136;27;20089;-67
2023/03/26 04:05:35;;;;;;;22.67;5.00;;;;;;;5.98;58.24;100759.91;4945970;27;20054;-66
2023/03/26 04:08:06;;;;;;;25.05;5.15;;;;;;;5.50;58.51;100693.69;4952479;27;20412;-66
2023/03/26 04:10:36;;;;;;;15.48;4.93;;;;;;;5.99;58.12;100768.56;4953335;27;20092;-63
2023/03/26 04:13:08;;;;;;;22.83;5.10;;;;;;;6.00;58.73;100758.22;4954156;28;20050;-65
2023/03/26 04:15:39;;;;;;;21.23;5.07;;;;;;;5.94;58.76;100768.53;4953040;27;20126;-64
2023/03/26 04:18:10;;;;;;;18.27;4.55;;;;;;;5.75;59.32;100738.03;4957030;27;20427;-65
2023/03/26 04:20:45;;;;;;;26.73;4.72;;;;;;;6.03;59.29;100742.66;4952859;27;20060;-66
2023/03/26 04:23:19;;;;;;;15.27;4.65;;;;;;;6.23;58.55;100765.34;4940862;28;20040;-65
2023/03/26 04:25:52;;;;;;;18.48;4.85;;;;;;;6.11;59.20;100762.63;4955389;27;20545;-66
2023/03/26 04:28:30;;;;;;;19.90;5.22;;;;;;;6.04;59.00;100760.00;4944625;28;20052;-64
2023/03/26 04:31:03;;;;;;;29.08;5.07;;;;;;;6.12;59.03;100761.81;4945916;27;20059;-65
2023/03/26 04:33:35;;;;;;;26.05;4.70;;;;;;;6.09;58.93;100735.81;4940510;27;20066;-65
2023/03/26 04:36:07;;;;;;;18.55;5.40;;;;;;;5.99;58.62;100694.22;4946832;27;20043;-65
2023/03/26 04:38:43;;;;;;;16.42;5.10;;;;;;;6.32;58.68;100760.25;4947016;27;20039;-66
2023/03/26 04:41:14;;;;;;;23.05;5.28;;;;;;;6.24;58.91;100747.22;4936463;27;20052;-66
2023/03/26 04:43:49;;;;;;;22.50;4.72;;;;;;;6.08;59.46;100757.41;4943716;27;20679;-65
2023/03/26 04:46:21;;;;;;;25.30;5.05;;;;;;;6.21;59.46;100751.47;4947616;27;20039;-66
2023/03/26 04:48:52;;;;;;;23.40;4.80;;;;;;;6.25;59.34;100743.75;4954429;28;20473;-67
2023/03/26 04:51:26;;;;;;;18.42;5.35;;;;;;;6.16;58.23;100709.06;4957527;28;20052;-65
2023/03/26 04:54:00;;;;;;;30.20;5.25;;;;;;;6.35;58.91;100734.31;4949028;27;20404;-65
2023/03/26 04:56:39;;;;;;;26.00;5.10;;;;;;;6.16;59.22;100727.22;4944140;28;20382;-66
2023/03/26 04:59:13;;;;;;;;;;;;;;;6.07;59.86;100742.72;4934591;28;20431;-66
2023/03/26 05:01:45;;;;;;;17.55;5.43;;;;;;;5.89;59.42;100736.47;4937780;28;19936;-65
2023/03/26 05:04:15;;;;;;;25.30;4.75;;;;;;;5.76;60.43;100738.03;4945253;28;20043;-66
2023/03/26 05:06:46;;;;;;;22.15;6.38;;;;;;;6.00;61.63;100732.28;4947511;27;20047;-65
2023/03/26 05:09:16;;;;;;;18.73;5.72;;;;;;;6.21;60.11;100715.16;4949231;27;20035;-65
2023/03/26 05:11:47;;;;;;;21.00;5.60;;;;;;;6.31;59.95;100726.50;4948344;27;20410;-66
2023/03/26 05:14:19;;;;;;;26.05;5.55;;;;;;;6.31;60.54;100726.50;4949364;27;20466;-64
2023/03/26 05:16:52;;;;;;;26.75;5.18;;;;;;;6.71;61.44;100732.84;4948207;27;20039;-63
2023/03/26 05:19:22;;;;;;;27.35;4.63;;;;;;;6.65;60.80;100717.25;4948719;27;20754;-64
2023/03/26 05:21:53;;;;;;;26.45;6.38;;;;;;;6.74;58.62;100726.81;4956236;27;20048;-66
2023/03/26 05:24:23;;;;;;;29.02;5.70;;;;;;;6.58;58.84;100725.84;4951364;27;20109;-64
2023/03/26 05:26:54;;;;;;;19.98;5.38;;;;;;;6.71;59.58;100719.88;4948391;27;20470;-66
2023/03/26 05:29:26;;;;;;;27.38;5.40;;;;;;;6.67;59.20;100715.53;4949573;27;20058;-66
2023/03/26 05:31:57;;;;;;;29.90;5.80;;;;;;;6.78;60.27;100713.84;4948429;27;20505;-66
2023/03/26 05:34:27;;;;;;;38.78;6.03;;;;;;;6.55;57.64;100668.72;4948646;27;20062;-66
2023/03/26 05:36:58;;;;;;;30.85;5.75;;;;;;;6.46;58.52;100714.53;4949051;27;20031;-66
2023/03/26 05:39:29;;;;;;;28.77;6.03;;;;;;;6.29;59.06;100713.53;4947883;27;20400;-66
2023/03/26 05:41:59;;;;;;;22.85;6.82;;;;;;;6.26;59.89;100705.69;4948573;27;20051;-65
2023/03/26 05:44:31;;;;;;;35.97;7.82;;;;;;;6.19;61.15;100702.19;4948314;27;20066;-66
2023/03/26 05:47:02;;;;;;;26.33;5.20;;;;;;;6.28;60.26;100691.00;4948392;27;20104;-66
2023/03/26 05:49:33;;;;;;;27.60;5.80;;;;;;;6.27;60.03;100694.47;4944274;27;20057;-66
2023/03/26 05:52:03;;;;;;;38.20;5.28;;;;;;;6.18;60.18;100690.06;4952570;27;20045;-65
2023/03/26 05:54:34;;;;;;;25.38;5.60;;;;;;;6.16;59.95;100685.69;4946644;27;20488;-66
2023/03/26 05:57:05;;;;;;;28.95;5.65;;;;;;;6.31;59.93;100705.72;4944107;27;20063;-65
2023/03/26 05:59:41;;;;;;;26.85;6.05;;;;;;;5.71;59.86;100635.13;4909070;28;20109;-64
2023/03/26 06:02:12;;;;;;;24.65;5.30;;;;;;;5.94;59.70;100680.34;4926595;27;20051;-66
2023/03/26 06:04:44;;;;;;;12.75;4.43;;;;;;;5.68;59.59;100645.47;4946303;27;20044;-65
2023/03/26 06:07:15;;;;;;;41.40;7.25;;;;;;;5.84;60.04;100678.47;4948632;27;20052;-65
2023/03/26 06:09:46;;;;;;;38.15;5.72;;;;;;;5.83;59.88;100674.13;4948458;27;20093;-66
2023/03/26 06:12:16;;;;;;;35.15;6.05;;;;;;;5.74;60.19;100684.41;4947653;27;20086;-66
2023/03/26 06:14:48;;;;;;;29.55;5.82;;;;;;;5.40;60.39;100646.06;4948054;27;20077;-66
2023/03/26 06:17:19;;;;;;;31.08;5.72;;;;;;;5.59;60.81;100667.88;4947572;27;20066;-66
2023/03/26 06:19:49;;;;;;;24.67;5.50;;;;;;;5.51;61.09;100669.50;4948315;27;20043;-65
2023/03/26 06:22:20;;;;;;;31.77;6.18;;;;;;;5.42;61.33;100684.97;4948886;27;20043;-66
2023/03/26 06:24:51;;;;;;;25.20;5.25;;;;;;;5.39;61.90;100678.03;4947960;27;20054;-66
2023/03/26 06:27:22;;;;;;;29.42;5.20;;;;;;;5.31;62.05;100683.94;4947846;27;20070;-66
2023/03/26 06:29:54;;;;;;;23.45;5.25;;;;;;;5.29;62.33;100681.38;4946977;27;20086;-65
2023/03/26 06:32:24;;;;;;;20.85;5.20;;;;;;;5.22;61.25;100678.66;4947978;27;20051;-65
2023/03/26 06:34:55;;;;;;;35.85;5.38;;;;;;;5.11;62.27;100679.41;4947448;27;20685;-66
2023/03/26 06:37:26;;;;;;;31.30;4.75;;;;;;;5.04;62.34;100685.38;4948796;27;20059;-65
2023/03/26 06:39:56;;;;;;;18.90;4.90;;;;;;;4.98;62.65;100682.69;4947349;27;20376;-66
2023/03/26 06:42:27;;;;;;;33.83;7.18;;;;;;;4.93;62.24;100692.13;4947828;27;20051;-66
2023/03/26 06:45:19;;;;;;;38.17;6.10;;;;;;;4.94;62.29;100686.06;4936078;27;20082;-67
2023/03/26 06:47:49;;;;;;;31.52;7.85;;;;;;;4.91;62.37;100680.88;4954547;27;20048;-67
2023/03/26 06:50:20;;;;;;;28.08;6.03;;;;;;;4.78;61.89;100668.59;4946341;27;20052;-66
2023/03/26 06:52:53;;;;;;;37.38;8.05;;;;;;;4.92;61.94;100664.50;4946586;27;20063;-66
2023/03/26 06:55:27;;;;;;;25.85;7.80;;;;;;;4.88;62.09;100654.94;4937526;27;20084;-66
2023/03/26 06:57:57;;;;;;;27.23;9.88;;;;;;;4.89;61.95;100664.44;4947198;27;20047;-66
2023/03/26 07:00:29;;;;;;;37.50;8.00;;;;;;;4.85;62.21;100660.09;4947196;27;20055;-66
2023/03/26 07:03:00;;;;;;;32.92;8.32;;;;;;;4.70;62.25;100625.38;4947133;27;20079;-66
2023/03/26 07:05:31;;;;;;;25.15;7.60;;;;;;;4.82;61.95;100639.31;4947940;27;20424;-67
2023/03/26 07:08:01;;;;;;;25.80;7.25;;;;;;;4.80;62.08;100656.56;4947433;27;20043;-66
2023/03/26 07:10:32;;;;;;;32.28;8.70;;;;;;;4.72;62.28;100646.97;4946376;28;20476;-67
2023/03/26 07:13:02;;;;;;;21.95;8.57;;;;;;;4.67;62.49;100651.22;4945551;27;20053;-65
2023/03/26 07:15:35;;;;;;;34.75;6.82;;;;;;;4.63;63.08;100648.56;4951381;27;20055;-66
2023/03/26 07:18:05;;;;;;;24.80;6.40;;;;;;;4.50;64.09;100642.34;4946699;27;20051;-66
2023/03/26 07:20:37;;;;;;;32.40;9.27;;;;;;;4.52;64.79;100640.66;4947688;27;20369;-66
2023/03/26 07:23:08;;;;;;;25.85;8.63;;;;;;;4.52;65.28;100646.69;4947280;27;20104;-66
2023/03/26 07:25:39;;;;;;;41.28;8.68;;;;;;;4.53;65.69;100632.88;4947976;27;20055;-66
2023/03/26 07:28:19;;;;;;;39.55;9.27;;;;;;;4.54;65.50;100634.66;4944767;27;20048;-66
2023/03/26 07:31:02;;;;;;;40.67;9.50;;;;;;;4.39;65.93;100618.00;4937705;27;20056;-66
2023/03/26 07:33:38;;;;;;;35.03;8.90;;;;;;;4.37;65.96;100606.75;4934808;27;20146;-65
2023/03/26 07:36:19;;;;;;;31.77;7.18;;;;;;;4.53;65.79;100622.53;4945763;27;20051;-66
2023/03/26 07:39:11;;;;;;;38.83;7.32;;;;;;;4.47;65.64;100637.13;4935412;27;20210;-66
2023/03/26 07:41:50;;;;;;;48.60;13.32;;;;;;;4.36;65.83;100634.38;4936086;27;25012;-66
2023/03/26 07:44:39;;;;;;;31.35;11.13;;;;;;;4.31;65.74;100621.34;4934807;27;20063;-66
2023/03/26 07:47:24;;;;;;;31.40;9.73;;;;;;;4.21;65.82;100629.81;4933872;27;20051;-66
2023/03/26 07:49:58;;;;;;;34.95;13.18;;;;;;;4.09;66.26;100645.16;4933333;27;20043;-67
2023/03/26 07:52:29;;;;;;;47.90;10.10;;;;;;;3.95;66.55;100620.81;4947637;27;20039;-66
2023/03/26 07:55:00;;;;;;;28.73;7.65;;;;;;;3.92;66.63;100626.81;4944317;27;20048;-67
2023/03/26 07:57:46;;;;;;;32.47;10.07;;;;;;;4.01;66.60;100641.56;4943991;27;20108;-66
2023/03/26 08:00:21;;;;;;;29.30;8.73;;;;;;;3.57;66.74;100577.06;4935413;27;20048;-66
2023/03/26 08:03:29;;;;;;;39.85;13.98;;;;;;;3.78;67.83;100629.13;4944532;27;22538;-66
2023/03/26 08:06:13;;;;;;;37.35;10.73;;;;;;;3.67;68.18;100621.22;4930479;27;20039;-66
2023/03/26 08:08:53;;;;;;;40.25;15.68;;;;;;;3.82;68.28;100638.69;4936597;27;20055;-66
2023/03/26 08:11:35;;;;;;;46.83;17.35;;;;;;;3.73;68.51;100646.28;4933749;27;20056;-65
2023/03/26 08:14:18;;;;;;;54.45;16.55;;;;;;;3.57;68.92;100628.75;4934742;27;20045;-66
2023/03/26 08:16:56;;;;;;;57.25;19.65;;;;;;;3.51;69.04;100649.31;4933027;27;20055;-65
2023/03/26 08:19:42;;;;;;;76.95;24.77;;;;;;;3.34;69.65;100636.94;4934731;27;20046;-66
2023/03/26 08:22:25;;;;;;;63.15;19.15;;;;;;;3.33;69.87;100650.72;4929799;27;20056;-66
2023/03/26 08:25:20;;;;;;;55.47;14.43;;;;;;;3.15;70.78;100640.03;4934208;27;20060;-66
2023/03/26 08:28:04;;;;;;;30.65;9.77;;;;;;;3.13;70.81;100662.38;4933005;27;20441;-66
2023/03/26 08:30:37;;;;;;;54.85;13.07;;;;;;;2.95;71.84;100661.16;4933135;27;20130;-65
2023/03/26 08:33:15;;;;;;;59.90;16.33;;;;;;;2.70;72.46;100653.75;4944638;27;20158;-66
2023/03/26 08:35:47;;;;;;;52.92;18.35;;;;;;;2.64;72.74;100653.59;4933359;27;20049;-66
2023/03/26 08:38:21;;;;;;;47.13;15.30;;;;;;;2.63;73.21;100675.06;4944203;27;20458;-65
2023/03/26 08:41:29;;;;;;;49.05;17.17;;;;;;;2.63;73.21;100675.94;4942512;28;20079;-66
2023/03/26 08:44:46;;;;;;;36.17;11.77;;;;;;;2.56;73.53;100672.34;4933559;27;20058;-66
2023/03/26 08:47:58;;;;;;;38.33;8.80;;;;;;;2.56;73.78;100669.75;4933434;28;20051;-65
2023/03/26 08:50:48;;;;;;;43.45;9.63;;;;;;;2.44;74.03;100674.63;4931846;27;20122;-65
2023/03/26 08:54:04;;;;;;;38.75;11.02;;;;;;;2.34;74.33;100683.00;4933863;28;20046;-66
2023/03/26 08:56:49;;;;;;;56.22;12.43;;;;;;;2.24;74.63;100675.88;4890922;28;20055;-66
2023/03/26 09:00:12;;;;;;;36.67;10.25;;;;;;;2.20;75.24;100684.38;4933407;28;20493;-66
2023/03/26 09:03:17;;;;;;;40.33;9.93;;;;;;;2.01;75.72;100658.16;4824380;28;20386;-64
2023/03/26 09:06:35;;;;;;;33.97;9.52;;;;;;;2.03;76.01;100677.09;4860065;28;20045;-66
2023/03/26 09:09:57;;;;;;;46.17;10.35;;;;;;;2.03;76.95;100677.09;4774784;28;20051;-65
2023/03/26 09:12:56;;;;;;;45.67;10.88;;;;;;;2.00;76.86;100681.28;4787738;28;20146;-65
2023/03/26 09:16:16;;;;;;;41.50;11.32;;;;;;;1.97;77.00;100682.09;4748799;28;20059;-65
2023/03/26 09:19:20;;;;;;;41.83;10.60;;;;;;;1.91;77.27;100687.09;4786701;28;20490;-66
2023/03/26 09:22:23;;;;;;;47.83;9.70;;;;;;;1.91;77.62;100690.56;4798035;28;20137;-66
2023/03/26 09:25:40;;;;;;;32.05;7.97;;;;;;;1.89;77.75;100688.78;4792470;28;20048;-65
2023/03/26 09:28:32;;;;;;;36.67;8.38;;;;;;;1.94;78.03;100692.34;4788004;28;20194;-65
2023/03/26 09:31:43;;;;;;;29.65;7.78;;;;;;;1.87;77.70;100695.59;4786170;28;20064;-65
2023/03/26 09:34:31;;;;;;;32.35;7.30;;;;;;;1.75;78.71;100695.25;4806538;28;20164;-65
2023/03/26 09:37:18;;;;;;;35.30;7.32;;;;;;;1.76;78.39;100707.31;4862015;28;20467;-65
2023/03/26 09:40:03;;;;;;;38.42;7.55;;;;;;;1.69;78.66;100712.31;4889288;28;20052;-66
2023/03/26 09:42:44;;;;;;;35.35;8.73;;;;;;;1.59;79.26;100710.31;4933743;28;20040;-65
2023/03/26 09:45:35;;;;;;;41.50;8.68;;;;;;;1.58;79.35;100712.88;4932048;28;20687;-66
2023/03/26 09:48:36;;;;;;;33.03;9.60;;;;;;;1.59;79.86;100720.63;4932357;28;20055;-66
2023/03/26 09:51:35;;;;;;;36.40;10.63;;;;;;;1.54;79.95;100722.19;4922509;28;20051;-66
2023/03/26 09:54:33;;;;;;;67.00;21.98;;;;;;;1.59;80.12;100718.03;4920521;27;20047;-66
2023/03/26 09:57:13;;;;;;;56.85;16.88;;;;;;;1.42;80.44;100683.22;4928388;27;20067;-66
2023/03/26 10:00:04;;;;;;;43.88;8.88;;;;;;;1.34;80.02;100677.00;4937829;27;20090;-66
2023/03/26 10:02:59;;;;;;;47.85;10.88;;;;;;;1.07;80.34;100637.69;4935295;27;20055;-66
2023/03/26 10:05:45;;;;;;;33.28;7.82;;;;;;;1.42;81.26;100722.75;4936011;27;20062;-66
2023/03/26 10:08:43;;;;;;;37.35;10.80;;;;;;;1.38;81.31;100707.16;4937612;27;20066;-66
2023/03/26 10:11:23;;;;;;;33.65;9.05;;;;;;;1.56;80.99;100717.97;4928833;27;20056;-66
2023/03/26 10:14:04;;;;;;;34.50;9.13;;;;;;;1.57;80.68;100727.41;4937307;27;20462;-66
2023/03/26 10:16:50;;;;;;;31.00;9.13;;;;;;;1.66;80.55;100717.38;4936051;27;20043;-66
2023/03/26 10:19:34;;;;;;;44.38;9.93;;;;;;;1.67;80.38;100716.56;4936752;27;20071;-66
2023/03/26 10:22:14;;;;;;;40.63;10.52;;;;;;;1.61;80.27;100716.38;4936660;27;20366;-66
2023/03/26 10:25:18;;;;;;;41.05;10.68;;;;;;;1.61;80.44;100724.13;4935424;27;20400;-66
2023/03/26 10:28:04;;;;;;;41.20;9.40;;;;;;;1.63;80.70;100727.59;4945899;27;20060;-66
2023/03/26 10:31:05;;;;;;;45.53;10.95;;;;;;;1.66;80.59;100732.84;4934699;27;20052;-66
2023/03/26 10:33:48;;;;;;;39.60;8.93;;;;;;;1.62;80.60;100731.03;4913671;27;20047;-65
2023/03/26 10:36:31;;;;;;;39.78;8.52;;;;;;;1.21;80.48;100653.50;4935230;27;20047;-66
2023/03/26 10:39:35;;;;;;;42.60;8.93;;;;;;;1.59;80.80;100720.63;4935312;27;21455;-66
2023/03/26 10:42:36;;;;;;;38.10;9.50;;;;;;;1.46;81.14;100708.25;4934779;27;20059;-66
2023/03/26 10:45:41;;;;;;;40.80;10.45;;;;;;;1.56;81.01;100710.22;4924859;27;20046;-65
2023/03/26 10:48:40;;;;;;;54.33;11.23;;;;;;;1.51;81.13;100711.81;4936579;28;21648;-66
2023/03/26 10:51:35;;;;;;;51.70;10.43;;;;;;;1.54;81.44;100711.91;4947413;28;20046;-66
2023/03/26 10:54:15;;;;;;;50.20;10.40;;;;;;;1.58;81.32;100716.31;4925112;28;20051;-66
2023/03/26 10:56:51;;;;;;;46.13;10.82;;;;;;;1.53;81.20;100715.31;4939462;28;20046;-65
2023/03/26 10:59:26;;;;;;;57.50;11.43;;;;;;;1.56;81.52;100710.22;4945892;28;20426;-66
2023/03/26 11:02:21;;;;;;;44.42;10.50;;;;;;;1.60;81.15;100712.06;4949517;28;20490;-66
2023/03/26 11:05:19;;;;;;;41.58;9.90;;;;;;;1.48;81.43;100701.44;4931617;28;20199;-65
2023/03/26 11:08:02;;;;;;;51.03;12.25;;;;;;;1.39;81.70;100701.16;4924860;28;20057;-66
2023/03/26 11:10:43;;;;;;;61.38;11.93;;;;;;;1.41;82.27;100699.53;4942649;28;20064;-65
2023/03/26 11:13:27;;;;;;;40.08;11.88;;;;;;;1.36;81.85;100706.25;4938352;28;20057;-65
2023/03/26 11:16:05;;;;;;;49.30;10.85;;;;;;;1.36;82.52;100695.94;4935603;28;20130;-65
2023/03/26 11:18:42;;;;;;;42.47;10.27;;;;;;;1.39;82.70;100696.03;4936879;28;20142;-65
2023/03/26 11:21:23;;;;;;;56.55;12.65;;;;;;;1.31;82.36;100698.38;4939297;28;20052;-65
2023/03/26 11:24:12;;;;;;;40.80;11.65;;;;;;;1.29;82.78;100700.91;4941715;27;20041;-65
2023/03/26 11:26:51;;;;;;;49.92;12.35;;;;;;;1.31;83.14;100692.38;4936356;27;20045;-65
2023/03/26 11:29:35;;;;;;;51.45;11.90;;;;;;;1.33;83.33;100696.72;4950614;28;20064;-66
2023/03/26 11:32:14;;;;;;;60.97;12.68;;;;;;;1.32;83.32;100694.09;4932013;28;20071;-65
2023/03/26 11:34:50;;;;;;;58.47;11.93;;;;;;;1.45;83.28;100694.50;4936309;28;20403;-65
2023/03/26 11:37:33;;;;;;;53.92;11.93;;;;;;;1.47;82.56;100699.66;4940778;28;20081;-65
2023/03/26 11:40:11;;;;;;;59.03;13.25;;;;;;;1.31;82.68;100671.78;4942485;28;20057;-66
2023/03/26 11:42:43;;;;;;;48.08;11.02;;;;;;;1.16;82.84;100654.19;4948664;28;20053;-65
2023/03/26 11:45:19;;;;;;;56.00;11.77;;;;;;;1.32;83.25;100673.50;4951640;28;20060;-65
2023/03/26 11:47:54;;;;;;;54.60;14.82;;;;;;;1.31;83.33;100676.94;4949537;28;20060;-65
2023/03/26 11:50:28;;;;;;;68.88;20.73;;;;;;;1.25;83.35;100678.50;4939111;28;20040;-65
2023/03/26 11:53:04;;;;;;;82.53;21.38;;;;;;;1.17;83.96;100668.81;4949752;28;20047;-65
2023/03/26 11:55:38;;;;;;;70.18;15.32;;;;;;;1.02;84.55;100669.25;4940686;27;20048;-65
2023/03/26 11:58:25;;;;;;;71.47;13.48;;;;;;;0.41;85.14;100570.59;4953027;28;20071;-65
2023/03/26 12:01:03;;;;;;;67.53;14.55;;;;;;;1.01;85.93;100677.81;4955742;27;20047;-65
2023/03/26 12:03:36;;;;;;;68.72;12.32;;;;;;;0.97;86.30;100670.81;4961686;27;20477;-66
2023/03/26 12:06:28;;;;;;;49.45;12.75;;;;;;;0.98;86.60;100672.56;4967658;27;20391;-65
2023/03/26 12:08:58;;;;;;;55.95;13.20;;;;;;;1.02;86.87;100664.09;4956537;27;20162;-66
2023/03/26 12:11:34;;;;;;;66.40;11.52;;;;;;;1.03;87.20;100671.88;4950884;27;20375;-66
2023/03/26 12:14:06;;;;;;;64.47;11.95;;;;;;;1.04;87.11;100671.03;4938938;28;20175;-65